createdAt,value
2023-05-12T00:00:42.015Z,13.44
2023-05-12T00:01:42.047Z,13.44
2023-05-12T00:02:42.090Z,13.44
2023-05-12T00:03:42.187Z,13.44
2023-05-12T00:04:42.087Z,13.45
2023-05-12T00:05:41.966Z,13.46
2023-05-12T00:06:41.939Z,13.46
2023-05-12T00:07:41.922Z,13.46
2023-05-12T00:08:41.941Z,13.46
2023-05-12T00:09:41.923Z,13.48
2023-05-12T00:10:41.898Z,13.49
2023-05-12T00:11:41.867Z,13.49
2023-05-12T00:12:41.878Z,13.48
2023-05-12T00:13:41.894Z,13.48
2023-05-12T00:14:41.822Z,13.46
2023-05-12T00:15:41.848Z,13.49
2023-05-12T00:16:41.859Z,13.49
2023-05-12T00:17:41.830Z,13.48
2023-05-12T00:18:41.883Z,13.51
2023-05-12T00:19:41.759Z,13.49
2023-05-12T00:20:41.787Z,13.51
2023-05-12T00:21:41.762Z,13.51
2023-05-12T00:22:41.745Z,13.52
2023-05-12T00:23:41.725Z,13.52
2023-05-12T00:24:41.691Z,13.52
2023-05-12T00:25:41.694Z,13.51
2023-05-12T00:26:41.714Z,13.52
2023-05-12T00:27:41.673Z,13.52
2023-05-12T00:28:41.656Z,13.49
2023-05-12T00:29:41.632Z,13.52
2023-05-12T00:30:41.642Z,13.51
2023-05-12T00:31:41.790Z,13.52
2023-05-12T00:32:41.732Z,13.49
2023-05-12T00:33:41.571Z,13.52
2023-05-12T00:34:41.580Z,13.51
2023-05-12T00:35:41.562Z,13.52
2023-05-12T00:36:41.563Z,13.52
2023-05-12T00:37:41.629Z,13.52
2023-05-12T00:38:41.528Z,13.54
2023-05-12T00:39:41.519Z,13.52
2023-05-12T00:40:41.488Z,13.52
2023-05-12T00:41:41.485Z,13.52
2023-05-12T00:42:41.496Z,13.52
2023-05-12T00:43:41.648Z,13.52
2023-05-12T00:44:41.448Z,13.52
2023-05-12T00:45:41.475Z,13.51
2023-05-12T00:46:41.416Z,13.51
2023-05-12T00:47:41.429Z,13.51
2023-05-12T00:48:41.418Z,13.52
2023-05-12T00:49:41.423Z,13.51
2023-05-12T00:50:41.384Z,13.51
2023-05-12T00:51:41.358Z,13.52
2023-05-12T00:52:41.371Z,13.51
2023-05-12T00:53:48.141Z,13.52
2023-05-12T00:54:42.304Z,13.52
2023-05-12T00:55:41.305Z,13.52
2023-05-12T00:56:41.296Z,13.52
2023-05-12T00:57:41.318Z,13.52
2023-05-12T00:58:41.297Z,13.52
2023-05-12T00:59:41.252Z,13.52
2023-05-12T01:00:41.236Z,13.54
2023-05-12T01:01:41.343Z,13.52
2023-05-12T01:02:41.412Z,13.54
2023-05-12T01:03:41.234Z,13.52
2023-05-12T01:04:41.218Z,13.51
2023-05-12T01:05:41.175Z,13.51
2023-05-12T01:06:41.163Z,13.52
2023-05-12T01:07:41.169Z,13.52
2023-05-12T01:08:41.135Z,13.51
2023-05-12T01:09:41.133Z,13.51
2023-05-12T01:10:41.110Z,13.52
2023-05-12T01:11:41.112Z,13.51
2023-05-12T01:12:41.081Z,13.51
2023-05-12T01:13:41.089Z,13.51
2023-05-12T01:14:41.099Z,13.49
2023-05-12T01:15:41.044Z,13.45
2023-05-12T01:16:41.030Z,13.44
2023-05-12T01:17:41.104Z,13.44
2023-05-12T01:18:41.093Z,13.44
2023-05-12T01:19:40.992Z,13.44
2023-05-12T01:20:40.985Z,13.42
2023-05-12T01:21:40.962Z,13.44
2023-05-12T01:22:40.946Z,13.44
2023-05-12T01:23:41.003Z,13.42
2023-05-12T01:24:40.932Z,13.42
2023-05-12T01:25:40.919Z,13.42
2023-05-12T01:26:40.926Z,13.44
2023-05-12T01:27:40.929Z,13.42
2023-05-12T01:28:40.883Z,13.42
2023-05-12T01:29:40.897Z,13.42
2023-05-12T01:30:40.853Z,13.42
2023-05-12T01:31:40.951Z,13.39
2023-05-12T01:32:40.879Z,13.38
2023-05-12T01:33:40.826Z,13.32
2023-05-12T01:34:40.822Z,13.30
2023-05-12T01:35:40.786Z,13.30
2023-05-12T01:36:40.775Z,13.29
2023-05-12T01:37:40.759Z,13.30
2023-05-12T01:38:40.799Z,13.28
2023-05-12T01:39:40.920Z,13.29
2023-05-12T01:40:40.737Z,13.30
2023-05-12T01:41:40.710Z,13.32
2023-05-12T01:42:40.695Z,13.29
2023-05-12T01:43:40.689Z,13.29
2023-05-12T01:44:40.684Z,13.29
2023-05-12T01:45:40.706Z,13.30
2023-05-12T01:46:40.717Z,13.29
2023-05-12T01:47:40.677Z,13.30
2023-05-12T01:48:40.613Z,13.32
2023-05-12T01:49:40.668Z,13.32
2023-05-12T01:50:40.593Z,13.32
2023-05-12T01:51:40.617Z,13.33
2023-05-12T01:52:40.583Z,13.32
2023-05-12T01:53:40.553Z,13.32
2023-05-12T01:54:40.549Z,13.30
2023-05-12T01:55:40.523Z,13.30
2023-05-12T01:56:40.538Z,13.32
2023-05-12T01:57:40.508Z,13.32
2023-05-12T01:58:40.557Z,13.30
2023-05-12T01:59:40.489Z,13.32
2023-05-12T02:00:40.457Z,13.30
2023-05-12T02:01:40.518Z,13.30
2023-05-12T02:02:42.938Z,13.29
2023-05-12T02:03:40.592Z,13.30
2023-05-12T02:04:40.416Z,13.28
2023-05-12T02:05:40.397Z,13.26
2023-05-12T02:06:40.384Z,13.26
2023-05-12T02:07:40.425Z,13.28
2023-05-12T02:08:40.368Z,13.28
2023-05-12T02:09:40.355Z,13.26
2023-05-12T02:10:40.345Z,13.25
2023-05-12T02:11:40.327Z,13.26
2023-05-12T02:12:40.305Z,13.26
2023-05-12T02:13:40.329Z,13.25
2023-05-12T02:14:40.287Z,13.25
2023-05-12T02:15:40.268Z,13.23
2023-05-12T02:16:40.278Z,13.25
2023-05-12T02:17:40.289Z,13.22
2023-05-12T02:18:40.267Z,13.22
2023-05-12T02:19:40.219Z,13.20
2023-05-12T02:20:40.202Z,13.20
2023-05-12T02:21:40.196Z,13.17
2023-05-12T02:22:40.186Z,13.17
2023-05-12T02:23:40.166Z,13.15
2023-05-12T02:24:40.165Z,13.17
2023-05-12T02:25:40.136Z,13.15
2023-05-12T02:26:40.155Z,13.14
2023-05-12T02:27:40.130Z,13.14
2023-05-12T02:28:40.124Z,13.14
2023-05-12T02:29:40.130Z,13.11
2023-05-12T02:30:40.077Z,13.10
2023-05-12T02:31:40.129Z,13.07
2023-05-12T02:32:40.092Z,13.05
2023-05-12T02:33:40.038Z,13.03
2023-05-12T02:34:40.036Z,13.03
2023-05-12T02:35:40.051Z,13.01
2023-05-12T02:36:40.014Z,13.00
2023-05-12T02:37:39.982Z,12.97
2023-05-12T02:38:39.970Z,12.97
2023-05-12T02:39:39.974Z,12.95
2023-05-12T02:40:39.983Z,12.95
2023-05-12T02:41:39.966Z,12.95
2023-05-12T02:42:39.930Z,12.93
2023-05-12T02:43:39.934Z,12.92
2023-05-12T02:44:39.896Z,12.92
2023-05-12T02:45:39.916Z,12.89
2023-05-12T02:46:39.999Z,12.89
2023-05-12T02:47:39.893Z,12.87
2023-05-12T02:48:39.849Z,12.86
2023-05-12T02:49:39.846Z,12.85
2023-05-12T02:50:39.814Z,12.85
2023-05-12T02:51:39.817Z,12.85
2023-05-12T02:52:39.791Z,12.83
2023-05-12T02:53:39.790Z,12.83
2023-05-12T02:54:39.798Z,12.85
2023-05-12T02:55:39.760Z,12.83
2023-05-12T02:56:39.740Z,12.82
2023-05-12T02:57:39.735Z,12.82
2023-05-12T02:58:39.721Z,12.79
2023-05-12T02:59:39.707Z,12.78
2023-05-12T03:00:39.724Z,12.77
2023-05-12T03:01:39.764Z,12.77
2023-05-12T03:02:39.852Z,12.77
2023-05-12T03:03:39.778Z,12.77
2023-05-12T03:04:39.631Z,12.75
2023-05-12T03:05:39.620Z,12.75
2023-05-12T03:06:39.647Z,12.74
2023-05-12T03:07:39.593Z,12.74
2023-05-12T03:08:39.582Z,12.72
2023-05-12T03:09:39.593Z,12.72
2023-05-12T03:10:39.554Z,12.71
2023-05-12T03:11:39.576Z,12.71
2023-05-12T03:12:39.548Z,12.70
2023-05-12T03:13:39.531Z,12.70
2023-05-12T03:14:39.505Z,12.68
2023-05-12T03:15:39.501Z,12.68
2023-05-12T03:16:39.524Z,12.68
2023-05-12T03:17:39.497Z,12.67
2023-05-12T03:18:39.467Z,12.68
2023-05-12T03:19:39.446Z,12.65
2023-05-12T03:20:39.447Z,12.67
2023-05-12T03:21:39.414Z,12.67
2023-05-12T03:22:39.432Z,12.65
2023-05-12T03:23:39.457Z,12.62
2023-05-12T03:24:39.364Z,12.64
2023-05-12T03:25:39.362Z,12.64
2023-05-12T03:26:39.373Z,12.64
2023-05-12T03:27:39.330Z,12.62
2023-05-12T03:28:39.352Z,12.62
2023-05-12T03:29:39.318Z,12.62
2023-05-12T03:30:39.299Z,12.62
2023-05-12T03:31:39.284Z,12.62
2023-05-12T03:32:39.417Z,12.60
2023-05-12T03:33:39.460Z,12.59
2023-05-12T03:34:39.241Z,12.60
2023-05-12T03:35:39.227Z,12.60
2023-05-12T03:36:39.209Z,12.59
2023-05-12T03:37:39.198Z,12.60
2023-05-12T03:38:39.185Z,12.57
2023-05-12T03:39:39.221Z,12.59
2023-05-12T03:40:39.158Z,12.59
2023-05-12T03:41:39.144Z,12.57
2023-05-12T03:42:39.129Z,12.57
2023-05-12T03:43:39.130Z,12.56
2023-05-12T03:44:39.142Z,12.56
2023-05-12T03:45:39.152Z,12.54
2023-05-12T03:46:39.151Z,12.53
2023-05-12T03:47:39.148Z,12.54
2023-05-12T03:48:39.057Z,12.53
2023-05-12T03:49:39.044Z,12.52
2023-05-12T03:50:39.080Z,12.52
2023-05-12T03:51:39.016Z,12.52
2023-05-12T03:52:39.012Z,12.50
2023-05-12T03:53:38.996Z,12.52
2023-05-12T03:54:38.978Z,12.50
2023-05-12T03:55:38.986Z,12.50
2023-05-12T03:56:38.957Z,12.49
2023-05-12T03:57:38.945Z,12.50
2023-05-12T03:58:38.935Z,12.50
2023-05-12T03:59:38.904Z,12.49
2023-05-12T04:00:39.020Z,12.47
2023-05-12T04:01:38.979Z,12.49
2023-05-12T04:02:39.023Z,12.47
2023-05-12T04:03:38.981Z,12.47
2023-05-12T04:04:38.838Z,12.46
2023-05-12T04:05:38.863Z,12.47
2023-05-12T04:06:38.904Z,12.46
2023-05-12T04:07:38.812Z,12.47
2023-05-12T04:08:41.703Z,12.47
2023-05-12T04:09:38.824Z,12.47
2023-05-12T04:10:38.837Z,12.47
2023-05-12T04:11:38.756Z,12.47
2023-05-12T04:12:38.830Z,12.47
2023-05-12T04:13:38.832Z,12.46
2023-05-12T04:14:42.861Z,12.46
2023-05-12T04:15:38.689Z,12.49
2023-05-12T04:16:38.740Z,12.47
2023-05-12T04:17:38.725Z,12.49
2023-05-12T04:18:38.753Z,12.47
2023-05-12T04:19:38.680Z,12.45
2023-05-12T04:20:38.628Z,12.45
2023-05-12T04:21:38.633Z,12.46
2023-05-12T04:22:38.635Z,12.46
2023-05-12T04:23:38.598Z,12.45
2023-05-12T04:24:38.595Z,12.45
2023-05-12T04:25:38.606Z,12.45
2023-05-12T04:26:38.550Z,12.45
2023-05-12T04:27:38.592Z,12.42
2023-05-12T04:28:38.511Z,12.41
2023-05-12T04:29:38.522Z,12.42
2023-05-12T04:30:38.511Z,12.42
2023-05-12T04:31:38.580Z,12.41
2023-05-12T04:32:38.509Z,12.38
2023-05-12T04:33:38.524Z,12.39
2023-05-12T04:34:38.451Z,12.39
2023-05-12T04:35:38.436Z,12.39
2023-05-12T04:36:38.429Z,12.41
2023-05-12T04:37:38.418Z,12.41
2023-05-12T04:38:38.429Z,12.39
2023-05-12T04:39:38.379Z,12.39
2023-05-12T04:40:38.371Z,12.39
2023-05-12T04:41:38.356Z,12.39
2023-05-12T04:42:38.363Z,12.38
2023-05-12T04:44:38.324Z,12.41
2023-05-12T04:45:38.316Z,12.39
2023-05-12T04:46:38.472Z,12.39
2023-05-12T04:47:38.376Z,12.39
2023-05-12T04:48:38.284Z,12.41
2023-05-12T04:49:38.256Z,12.42
2023-05-12T04:50:38.258Z,12.41
2023-05-12T04:51:38.373Z,12.41
2023-05-12T04:52:38.222Z,12.42
2023-05-12T04:53:38.227Z,12.41
2023-05-12T04:54:38.178Z,12.39
2023-05-12T04:55:38.174Z,12.39
2023-05-12T04:56:38.199Z,12.41
2023-05-12T04:57:38.148Z,12.39
2023-05-12T04:58:38.168Z,12.41
2023-05-12T04:59:39.986Z,12.39
2023-05-12T05:00:38.117Z,12.42
2023-05-12T05:01:38.167Z,12.45
2023-05-12T05:02:38.169Z,12.46
2023-05-12T05:03:38.180Z,12.47
2023-05-12T05:04:38.103Z,12.49
2023-05-12T05:05:38.059Z,12.49
2023-05-12T05:06:38.042Z,12.50
2023-05-12T05:07:38.038Z,12.52
2023-05-12T05:08:38.051Z,12.50
2023-05-12T05:09:37.990Z,12.49
2023-05-12T05:10:37.984Z,12.49
2023-05-12T05:11:37.961Z,12.50
2023-05-12T05:12:37.972Z,12.52
2023-05-12T05:13:37.947Z,12.52
2023-05-12T05:14:37.951Z,12.54
2023-05-12T05:15:37.929Z,12.56
2023-05-12T05:16:37.907Z,12.57
2023-05-12T05:17:37.921Z,12.57
2023-05-12T05:18:37.957Z,12.57
2023-05-12T05:19:53.642Z,12.56
2023-05-12T05:20:40.818Z,12.59
2023-05-12T05:21:37.831Z,12.60
2023-05-12T05:22:37.844Z,12.60
2023-05-12T05:23:37.822Z,12.62
2023-05-12T05:24:37.799Z,12.65
2023-05-12T05:25:37.818Z,12.68
2023-05-12T05:26:37.803Z,12.68
2023-05-12T05:27:37.769Z,12.68
2023-05-12T05:28:37.827Z,12.70
2023-05-12T05:29:37.738Z,12.71
2023-05-12T05:30:37.742Z,12.68
2023-05-12T05:31:37.765Z,12.68
2023-05-12T05:32:37.839Z,12.71
2023-05-12T05:33:37.758Z,12.71
2023-05-12T05:34:37.793Z,12.71
2023-05-12T05:35:37.789Z,12.72
2023-05-12T05:36:37.659Z,12.74
2023-05-12T05:37:37.620Z,12.77
2023-05-12T05:38:37.642Z,12.77
2023-05-12T05:39:37.620Z,12.79
2023-05-12T05:40:51.562Z,12.79
2023-05-12T05:41:38.595Z,12.85
2023-05-12T05:42:37.563Z,12.83
2023-05-12T05:43:37.572Z,12.85
2023-05-12T05:44:37.570Z,12.85
2023-05-12T05:45:37.535Z,12.83
2023-05-12T05:46:37.581Z,12.82
2023-05-12T05:47:37.540Z,12.82
2023-05-12T05:48:37.477Z,12.79
2023-05-12T05:49:37.453Z,12.82
2023-05-12T05:50:37.510Z,12.82
2023-05-12T05:51:37.442Z,12.83
2023-05-12T05:52:37.432Z,12.83
2023-05-12T05:53:37.401Z,12.87
2023-05-12T05:54:37.401Z,12.87
2023-05-12T05:55:37.405Z,12.87
2023-05-12T05:56:37.425Z,12.89
2023-05-12T05:57:37.377Z,12.92
2023-05-12T05:58:37.345Z,12.95
2023-05-12T05:59:37.327Z,12.97
2023-05-12T06:00:37.348Z,13.01
2023-05-12T06:01:37.411Z,13.03
2023-05-12T06:02:37.353Z,13.07
2023-05-12T06:03:37.607Z,13.08
2023-05-12T06:04:37.286Z,13.10
2023-05-12T06:05:37.248Z,13.08
2023-05-12T06:06:37.253Z,13.11
2023-05-12T06:07:37.247Z,13.10
2023-05-12T06:08:37.219Z,13.12
2023-05-12T06:09:37.189Z,13.11
2023-05-12T06:10:37.311Z,13.12
2023-05-12T06:11:37.174Z,13.12
2023-05-12T06:12:37.156Z,13.14
2023-05-12T06:13:37.156Z,13.17
2023-05-12T06:14:37.123Z,13.19
2023-05-12T06:15:37.131Z,13.22
2023-05-12T06:16:37.129Z,13.22
2023-05-12T06:17:37.127Z,13.22
2023-05-12T06:18:37.110Z,13.22
2023-05-12T06:19:37.068Z,13.23
2023-05-12T06:20:37.102Z,13.25
2023-05-12T06:21:37.044Z,13.26
2023-05-12T06:22:37.026Z,13.28
2023-05-12T06:23:37.040Z,13.28
2023-05-12T06:24:36.992Z,13.29
2023-05-12T06:25:37.205Z,13.29
2023-05-12T06:26:36.973Z,13.30
2023-05-12T06:27:36.952Z,13.30
2023-05-12T06:28:36.947Z,13.33
2023-05-12T06:29:36.945Z,13.30
2023-05-12T06:30:36.928Z,13.32
2023-05-12T06:31:36.980Z,13.33
2023-05-12T06:32:36.976Z,13.32
2023-05-12T06:33:36.881Z,13.32
2023-05-12T06:34:36.877Z,13.32
2023-05-12T06:35:36.858Z,13.36
2023-05-12T06:36:36.877Z,13.33
2023-05-12T06:37:36.825Z,13.36
2023-05-12T06:38:36.811Z,13.36
2023-05-12T06:39:36.790Z,13.36
2023-05-12T06:40:36.792Z,13.33
2023-05-12T06:41:36.836Z,13.33
2023-05-12T06:42:36.761Z,13.33
2023-05-12T06:43:36.763Z,13.38
2023-05-12T06:44:36.768Z,13.39
2023-05-12T06:45:36.750Z,13.39
2023-05-12T06:46:36.752Z,13.44
2023-05-12T06:47:36.795Z,13.46
2023-05-12T06:48:36.687Z,13.48
2023-05-12T06:49:36.678Z,13.48
2023-05-12T06:50:36.663Z,13.48
2023-05-12T06:51:36.653Z,13.46
2023-05-12T06:52:36.625Z,13.46
2023-05-12T06:53:36.652Z,13.45
2023-05-12T06:54:36.606Z,13.45
2023-05-12T06:55:36.596Z,13.48
2023-05-12T06:56:36.575Z,13.48
2023-05-12T06:57:36.576Z,13.49
2023-05-12T06:58:36.571Z,13.54
2023-05-12T06:59:36.603Z,13.55
2023-05-12T07:00:36.531Z,13.54
2023-05-12T07:01:36.598Z,13.54
2023-05-12T07:02:36.506Z,13.54
2023-05-12T07:03:36.530Z,13.54
2023-05-12T07:04:36.513Z,13.52
2023-05-12T07:05:36.513Z,13.51
2023-05-12T07:06:36.454Z,13.49
2023-05-12T07:07:36.449Z,13.46
2023-05-12T07:08:36.432Z,13.46
2023-05-12T07:09:36.419Z,13.48
2023-05-12T07:10:36.414Z,13.46
2023-05-12T07:11:36.409Z,13.48
2023-05-12T07:12:36.371Z,13.49
2023-05-12T07:13:36.372Z,13.51
2023-05-12T07:14:36.361Z,13.48
2023-05-12T07:15:36.473Z,13.48
2023-05-12T07:16:36.331Z,13.48
2023-05-12T07:17:36.394Z,13.49
2023-05-12T07:18:36.426Z,13.51
2023-05-12T07:19:36.314Z,13.49
2023-05-12T07:20:36.291Z,13.51
2023-05-12T07:21:36.261Z,13.51
2023-05-12T07:22:38.466Z,13.49
2023-05-12T07:23:36.266Z,13.51
2023-05-12T07:24:36.241Z,13.49
2023-05-12T07:25:36.230Z,13.49
2023-05-12T07:26:36.199Z,13.51
2023-05-12T07:27:36.175Z,13.49
2023-05-12T07:28:36.212Z,13.49
2023-05-12T07:29:36.159Z,13.49
2023-05-12T07:30:36.143Z,13.52
2023-05-12T07:31:36.237Z,13.51
2023-05-12T07:32:36.138Z,13.52
2023-05-12T07:33:36.097Z,13.54
2023-05-12T07:34:36.110Z,13.54
2023-05-12T07:35:36.078Z,13.54
2023-05-12T07:36:36.064Z,13.52
2023-05-12T07:37:36.054Z,13.52
2023-05-12T07:38:36.047Z,13.51
2023-05-12T07:39:36.066Z,13.52
2023-05-12T07:40:36.074Z,13.52
2023-05-12T07:41:36.002Z,13.54
2023-05-12T07:42:36.001Z,13.54
2023-05-12T07:43:35.978Z,13.55
2023-05-12T07:44:35.965Z,13.55
2023-05-12T07:45:36.021Z,13.57
2023-05-12T07:46:36.029Z,13.59
2023-05-12T07:47:35.936Z,13.62
2023-05-12T07:48:35.913Z,13.63
2023-05-12T07:49:35.918Z,13.64
2023-05-12T07:50:35.889Z,13.67
2023-05-12T07:51:35.893Z,13.67
2023-05-12T07:52:35.882Z,13.67
2023-05-12T07:53:35.831Z,13.67
2023-05-12T07:54:35.842Z,13.70
2023-05-12T07:55:35.828Z,13.69
2023-05-12T07:56:35.807Z,13.70
2023-05-12T07:57:35.879Z,13.75
2023-05-12T07:58:35.791Z,13.77
2023-05-12T07:59:35.774Z,13.79
2023-05-12T08:00:35.788Z,13.82
2023-05-12T08:01:35.764Z,13.78
2023-05-12T08:02:35.797Z,13.75
2023-05-12T08:03:35.841Z,13.77
2023-05-12T08:04:35.735Z,13.77
2023-05-12T08:05:35.722Z,13.78
2023-05-12T08:06:35.680Z,13.81
2023-05-12T08:07:35.666Z,13.79
2023-05-12T08:08:35.699Z,13.82
2023-05-12T08:09:35.671Z,13.81
2023-05-12T08:10:35.630Z,13.85
2023-05-12T08:11:35.624Z,13.88
2023-05-12T08:12:35.602Z,13.91
2023-05-12T08:13:35.600Z,13.95
2023-05-12T08:14:35.575Z,13.95
2023-05-12T08:15:35.608Z,13.96
2023-05-12T08:16:35.604Z,13.99
2023-05-12T08:17:35.569Z,14.02
2023-05-12T08:18:35.563Z,14.02
2023-05-12T08:19:35.516Z,14.00
2023-05-12T08:20:35.503Z,14.00
2023-05-12T08:21:36.564Z,14.00
2023-05-12T08:22:35.470Z,14.02
2023-05-12T08:23:35.482Z,14.06
2023-05-12T08:24:35.452Z,14.09
2023-05-12T08:25:36.415Z,14.14
2023-05-12T08:26:36.181Z,14.15
2023-05-12T08:27:35.422Z,14.15
2023-05-12T08:28:35.392Z,14.17
2023-05-12T08:29:35.383Z,14.17
2023-05-12T08:30:35.375Z,14.21
2023-05-12T08:31:35.509Z,14.22
2023-05-12T08:32:35.355Z,14.27
2023-05-12T08:33:35.327Z,14.28
2023-05-12T08:34:35.321Z,14.35
2023-05-12T08:35:35.314Z,14.37
2023-05-12T08:36:35.369Z,14.42
2023-05-12T08:37:35.293Z,14.45
2023-05-12T08:38:35.272Z,14.47
2023-05-12T08:39:35.248Z,14.54
2023-05-12T08:40:35.257Z,14.60
2023-05-12T08:41:35.232Z,14.64
2023-05-12T08:42:35.233Z,14.72
2023-05-12T08:43:35.227Z,14.77
2023-05-12T08:44:35.219Z,14.78
2023-05-12T08:45:35.175Z,14.83
2023-05-12T08:46:35.327Z,14.81
2023-05-12T08:47:35.268Z,14.81
2023-05-12T08:48:35.153Z,14.80
2023-05-12T08:49:35.143Z,14.77
2023-05-12T08:50:35.348Z,14.78
2023-05-12T08:51:35.125Z,14.83
2023-05-12T08:52:35.285Z,14.86
2023-05-12T08:53:35.097Z,14.89
2023-05-12T08:54:40.004Z,14.88
2023-05-12T08:55:36.058Z,14.89
2023-05-12T08:57:35.039Z,14.98
2023-05-12T08:58:41.022Z,15.02
2023-05-12T08:59:36.011Z,15.09
2023-05-12T09:00:35.022Z,15.11
2023-05-12T09:01:36.748Z,15.14
2023-05-12T09:02:48.249Z,15.19
2023-05-12T09:03:39.937Z,15.27
2023-05-12T09:04:34.992Z,15.32
2023-05-12T09:05:34.917Z,15.38
2023-05-12T09:06:34.904Z,15.44
2023-05-12T09:07:34.892Z,15.50
2023-05-12T09:08:35.160Z,15.57
2023-05-12T09:09:34.881Z,15.60
2023-05-12T09:10:35.882Z,15.64
2023-05-12T09:11:34.852Z,15.67
2023-05-12T09:12:34.828Z,15.69
2023-05-12T09:13:34.817Z,15.69
2023-05-12T09:14:34.804Z,15.74
2023-05-12T09:15:34.832Z,15.80
2023-05-12T09:16:34.820Z,15.82
2023-05-12T09:17:34.799Z,15.83
2023-05-12T09:18:34.799Z,15.84
2023-05-12T09:19:34.739Z,15.90
2023-05-12T09:20:34.747Z,15.93
2023-05-12T09:21:34.734Z,15.97
2023-05-12T09:22:34.703Z,16.07
2023-05-12T09:23:34.694Z,16.17
2023-05-12T09:24:34.676Z,16.27
2023-05-12T09:25:34.655Z,16.31
2023-05-12T09:26:34.730Z,16.41
2023-05-12T09:27:34.639Z,16.42
2023-05-12T09:28:34.622Z,16.43
2023-05-12T09:29:42.183Z,16.45
2023-05-12T09:30:35.592Z,16.45
2023-05-12T09:31:34.687Z,16.39
2023-05-12T09:32:34.688Z,16.42
2023-05-12T09:33:34.561Z,16.38
2023-05-12T09:34:34.541Z,16.39
2023-05-12T09:35:34.533Z,16.46
2023-05-12T09:36:34.535Z,16.52
2023-05-12T09:37:34.705Z,16.58
2023-05-12T09:38:34.481Z,16.63
2023-05-12T09:39:34.475Z,16.67
2023-05-12T09:40:34.512Z,16.68
2023-05-12T09:41:34.457Z,16.71
2023-05-12T09:42:34.454Z,16.78
2023-05-12T09:43:34.461Z,16.81
2023-05-12T09:44:34.402Z,16.83
2023-05-12T09:45:34.426Z,16.85
2023-05-12T09:46:34.448Z,16.91
2023-05-12T09:47:34.387Z,16.98
2023-05-12T09:48:34.400Z,16.98
2023-05-12T09:49:34.343Z,17.03
2023-05-12T09:50:44.363Z,17.15
2023-05-12T09:51:35.302Z,17.30
2023-05-12T09:52:34.300Z,17.38
2023-05-12T09:53:34.317Z,17.46
2023-05-12T09:54:34.393Z,17.46
2023-05-12T09:55:34.250Z,17.48
2023-05-12T09:56:34.241Z,17.52
2023-05-12T09:57:34.224Z,17.49
2023-05-12T09:58:34.206Z,17.49
2023-05-12T09:59:34.216Z,17.51
2023-05-12T10:00:51.970Z,17.56
2023-05-12T10:01:35.176Z,17.68
2023-05-12T10:02:34.289Z,17.81
2023-05-12T10:03:34.138Z,17.86
2023-05-12T10:04:34.168Z,17.79
2023-05-12T10:05:34.176Z,17.78
2023-05-12T10:06:34.238Z,17.82
2023-05-12T10:07:34.099Z,17.86
2023-05-12T10:08:34.122Z,17.82
2023-05-12T10:09:34.211Z,17.77
2023-05-12T10:10:34.107Z,17.79
2023-05-12T10:11:34.322Z,17.81
2023-05-12T10:12:34.018Z,17.81
2023-05-12T10:13:34.007Z,17.84
2023-05-12T10:14:34.001Z,17.90
2023-05-12T10:15:34.021Z,18.00
2023-05-12T10:16:34.021Z,17.93
2023-05-12T10:17:33.983Z,17.86
2023-05-12T10:18:33.987Z,17.79
2023-05-12T10:19:33.922Z,17.75
2023-05-12T10:20:33.976Z,17.78
2023-05-12T10:21:33.894Z,17.84
2023-05-12T10:22:33.889Z,17.92
2023-05-12T10:23:35.452Z,17.87
2023-05-12T10:24:33.872Z,17.74
2023-05-12T10:25:33.895Z,17.70
2023-05-12T10:26:33.858Z,17.71
2023-05-12T10:27:33.858Z,17.72
2023-05-12T10:28:33.803Z,17.71
2023-05-12T10:29:33.831Z,17.68
2023-05-12T10:30:33.788Z,17.64
2023-05-12T10:31:33.888Z,17.58
2023-05-12T10:32:33.802Z,17.55
2023-05-12T10:33:33.769Z,17.48
2023-05-12T10:34:33.752Z,17.48
2023-05-12T10:35:33.741Z,17.48
2023-05-12T10:36:33.708Z,17.49
2023-05-12T10:37:33.715Z,17.51
2023-05-12T10:38:33.681Z,17.52
2023-05-12T10:39:33.663Z,17.51
2023-05-12T10:40:33.661Z,17.49
2023-05-12T10:41:33.672Z,17.55
2023-05-12T10:42:33.794Z,17.58
2023-05-12T10:43:33.645Z,17.64
2023-05-12T10:44:33.602Z,17.68
2023-05-12T10:45:33.722Z,17.70
2023-05-12T10:46:33.597Z,17.74
2023-05-12T10:47:33.610Z,17.78
2023-05-12T10:48:33.575Z,17.81
2023-05-12T10:49:33.553Z,17.81
2023-05-12T10:50:33.528Z,17.81
2023-05-12T10:51:33.545Z,17.81
2023-05-12T10:52:33.506Z,17.81
2023-05-12T10:53:47.679Z,17.81
2023-05-12T10:54:34.520Z,17.78
2023-05-12T10:55:33.563Z,17.77
2023-05-12T10:56:33.723Z,17.72
2023-05-12T10:57:34.146Z,17.66
2023-05-12T10:58:33.724Z,17.70
2023-05-12T10:59:33.904Z,17.70
2023-05-12T11:00:33.875Z,17.70
2023-05-12T11:01:33.618Z,17.74
2023-05-12T11:02:36.388Z,17.79
2023-05-12T11:03:34.718Z,17.86
2023-05-12T11:04:33.901Z,17.95
2023-05-12T11:05:33.597Z,17.96
2023-05-12T11:06:34.259Z,17.97
2023-05-12T11:07:33.487Z,17.95
2023-05-12T11:08:34.161Z,17.96
2023-05-12T11:09:33.895Z,18.03
2023-05-12T11:10:33.616Z,18.11
2023-05-12T11:11:34.151Z,18.17
2023-05-12T11:12:33.469Z,18.18
2023-05-12T11:13:33.241Z,18.21
2023-05-12T11:14:33.229Z,18.21
2023-05-12T11:15:33.200Z,18.17
2023-05-12T11:16:33.298Z,18.11
2023-05-12T11:17:33.246Z,18.05
2023-05-12T11:18:33.206Z,18.02
2023-05-12T11:19:33.138Z,18.03
2023-05-12T11:20:33.146Z,18.08
2023-05-12T11:21:33.123Z,18.15
2023-05-12T11:22:33.128Z,18.23
2023-05-12T11:23:33.107Z,18.35
2023-05-12T11:24:33.124Z,18.36
2023-05-12T11:25:33.145Z,18.30
2023-05-12T11:26:33.052Z,18.29
2023-05-12T11:27:33.128Z,18.35
2023-05-12T11:28:33.017Z,18.45
2023-05-12T11:29:33.009Z,18.57
2023-05-12T11:30:33.019Z,18.67
2023-05-12T11:31:33.035Z,18.78
2023-05-12T11:32:32.992Z,18.81
2023-05-12T11:33:33.090Z,18.87
2023-05-12T11:34:32.950Z,18.76
2023-05-12T11:35:32.931Z,18.60
2023-05-12T11:36:32.916Z,18.62
2023-05-12T11:37:32.903Z,18.65
2023-05-12T11:38:32.898Z,18.72
2023-05-12T11:39:32.905Z,18.80
2023-05-12T11:40:32.859Z,18.80
2023-05-12T11:41:32.879Z,18.85
2023-05-12T11:42:32.836Z,18.91
2023-05-12T11:43:32.835Z,18.95
2023-05-12T11:44:32.862Z,18.94
2023-05-12T11:45:32.809Z,19.04
2023-05-12T11:46:32.808Z,19.14
2023-05-12T11:47:32.848Z,19.14
2023-05-12T11:48:32.764Z,19.14
2023-05-12T11:49:32.772Z,19.18
2023-05-12T11:50:32.736Z,19.19
2023-05-12T11:51:32.725Z,19.18
2023-05-12T11:52:32.730Z,19.19
2023-05-12T11:53:32.701Z,19.22
2023-05-12T11:54:32.683Z,19.18
2023-05-12T11:55:32.918Z,19.21
2023-05-12T11:56:32.662Z,19.26
2023-05-12T11:57:32.693Z,19.31
2023-05-12T11:58:33.489Z,19.37
2023-05-12T11:59:32.622Z,19.40
2023-05-12T12:00:32.636Z,19.44
2023-05-12T12:01:32.623Z,19.50
2023-05-12T12:02:32.717Z,19.55
2023-05-12T12:03:32.615Z,19.51
2023-05-12T12:04:33.592Z,19.48
2023-05-12T12:05:32.559Z,19.43
2023-05-12T12:06:32.548Z,19.32
2023-05-12T12:07:32.550Z,19.28
2023-05-12T12:08:32.507Z,19.31
2023-05-12T12:09:32.504Z,19.19
2023-05-12T12:10:32.514Z,19.10
2023-05-12T12:11:32.456Z,19.02
2023-05-12T12:12:32.458Z,18.98
2023-05-12T12:13:32.443Z,18.99
2023-05-12T12:14:32.433Z,19.06
2023-05-12T12:15:32.414Z,19.11
2023-05-12T12:16:32.483Z,19.11
2023-05-12T12:17:33.330Z,19.18
2023-05-12T12:18:32.469Z,19.23
2023-05-12T12:19:32.361Z,19.33
2023-05-12T12:20:32.346Z,19.36
2023-05-12T12:21:32.329Z,19.33
2023-05-12T12:22:32.369Z,19.39
2023-05-12T12:23:43.820Z,19.46
2023-05-12T12:24:33.299Z,19.50
2023-05-12T12:25:32.294Z,19.48
2023-05-12T12:26:32.282Z,19.54
2023-05-12T12:27:32.304Z,19.58
2023-05-12T12:28:32.241Z,19.61
2023-05-12T12:29:32.269Z,19.65
2023-05-12T12:30:32.231Z,19.69
2023-05-12T12:31:32.263Z,19.69
2023-05-12T12:32:32.260Z,19.69
2023-05-12T12:33:32.177Z,19.66
2023-05-12T12:34:32.327Z,19.68
2023-05-12T12:35:32.155Z,19.66
2023-05-12T12:36:32.133Z,19.62
2023-05-12T12:37:32.149Z,19.63
2023-05-12T12:38:32.108Z,19.66
2023-05-12T12:39:32.105Z,19.71
2023-05-12T12:40:32.127Z,19.76
2023-05-12T12:41:32.126Z,19.77
2023-05-12T12:42:32.056Z,19.74
2023-05-12T12:43:32.080Z,19.76
2023-05-12T12:44:32.049Z,19.77
2023-05-12T12:45:32.021Z,19.80
2023-05-12T12:46:32.034Z,19.80
2023-05-12T12:47:32.057Z,19.80
2023-05-12T12:48:32.059Z,19.84
2023-05-12T12:49:32.047Z,19.91
2023-05-12T12:50:31.970Z,19.95
2023-05-12T12:51:44.603Z,19.92
2023-05-12T12:52:32.921Z,19.94
2023-05-12T12:53:31.928Z,19.95
2023-05-12T12:54:31.939Z,19.98